sensor_id;sensor_type;location;lat;lon;timestamp;pressure;altitude;pressure_sealevel;temperature;humidity
55755;BME280;41674;52.290;-1.474;2022-09-14T00:00:54;100388.50;;;15.91;69.84
55755;BME280;41674;52.290;-1.474;2022-09-14T00:03:24;100385.54;;;15.70;70.43
55755;BME280;41674;52.290;-1.474;2022-09-14T00:05:53;100385.02;;;15.41;69.80
55755;BME280;41674;52.290;-1.474;2022-09-14T00:08:22;100382.61;;;15.89;68.88
55755;BME280;41674;52.290;-1.474;2022-09-14T00:10:52;100384.91;;;15.24;71.37
55755;BME280;41674;52.290;-1.474;2022-09-14T00:13:21;100384.92;;;15.56;70.97
55755;BME280;41674;52.290;-1.474;2022-09-14T00:15:51;100386.74;;;15.81;71.68
55755;BME280;41674;52.290;-1.474;2022-09-14T00:18:21;100383.88;;;14.83;73.02
55755;BME280;41674;52.290;-1.474;2022-09-14T00:20:50;100383.65;;;14.63;73.70
55755;BME280;41674;52.290;-1.474;2022-09-14T00:23:20;100378.44;;;14.77;72.95
55755;BME280;41674;52.290;-1.474;2022-09-14T00:25:49;100374.42;;;15.01;73.10
55755;BME280;41674;52.290;-1.474;2022-09-14T00:28:19;100369.89;;;14.76;72.41
55755;BME280;41674;52.290;-1.474;2022-09-14T00:30:48;100370.94;;;14.58;73.40
55755;BME280;41674;52.290;-1.474;2022-09-14T00:33:18;100367.05;;;14.77;73.43
55755;BME280;41674;52.290;-1.474;2022-09-14T00:35:47;100360.05;;;15.02;72.55
55755;BME280;41674;52.290;-1.474;2022-09-14T00:38:22;100360.41;;;14.47;73.31
55755;BME280;41674;52.290;-1.474;2022-09-14T00:40:55;100355.27;;;14.75;71.77
55755;BME280;41674;52.290;-1.474;2022-09-14T00:43:16;100356.48;;;14.95;72.89
55755;BME280;41674;52.290;-1.474;2022-09-14T00:45:45;100355.84;;;14.86;72.24
55755;BME280;41674;52.290;-1.474;2022-09-14T00:48:15;100358.31;;;14.70;72.33
55755;BME280;41674;52.290;-1.474;2022-09-14T00:50:44;100355.93;;;15.27;70.82
55755;BME280;41674;52.290;-1.474;2022-09-14T00:53:14;100352.97;;;14.82;71.59
55755;BME280;41674;52.290;-1.474;2022-09-14T00:55:44;100353.17;;;14.15;73.58
55755;BME280;41674;52.290;-1.474;2022-09-14T00:58:13;100345.78;;;14.75;72.20
55755;BME280;41674;52.290;-1.474;2022-09-14T01:00:42;100339.97;;;15.33;70.73
55755;BME280;41674;52.290;-1.474;2022-09-14T01:03:12;100337.24;;;15.26;70.60
55755;BME280;41674;52.290;-1.474;2022-09-14T01:05:53;100337.89;;;15.21;69.96
55755;BME280;41674;52.290;-1.474;2022-09-14T01:08:27;100337.24;;;15.10;69.92
55755;BME280;41674;52.290;-1.474;2022-09-14T01:10:50;100336.68;;;14.49;72.79
55755;BME280;41674;52.290;-1.474;2022-09-14T01:13:21;100333.73;;;14.20;73.78
55755;BME280;41674;52.290;-1.474;2022-09-14T01:15:46;100327.25;;;15.33;71.66
55755;BME280;41674;52.290;-1.474;2022-09-14T01:18:13;100326.15;;;14.62;74.08
55755;BME280;41674;52.290;-1.474;2022-09-14T01:20:42;100320.66;;;14.44;74.84
55755;BME280;41674;52.290;-1.474;2022-09-14T01:23:14;100319.39;;;14.62;75.35
55755;BME280;41674;52.290;-1.474;2022-09-14T01:28:11;100318.03;;;14.61;75.14
55755;BME280;41674;52.290;-1.474;2022-09-14T01:30:39;100318.64;;;14.29;75.70
55755;BME280;41674;52.290;-1.474;2022-09-14T01:33:10;100314.06;;;14.32;75.26
55755;BME280;41674;52.290;-1.474;2022-09-14T01:35:39;100309.86;;;14.13;75.50
55755;BME280;41674;52.290;-1.474;2022-09-14T01:38:16;100307.47;;;14.59;73.77
55755;BME280;41674;52.290;-1.474;2022-09-14T01:40:38;100303.68;;;14.44;74.09
55755;BME280;41674;52.290;-1.474;2022-09-14T01:43:08;100303.35;;;14.55;74.41
55755;BME280;41674;52.290;-1.474;2022-09-14T01:45:34;100303.49;;;14.74;73.74
55755;BME280;41674;52.290;-1.474;2022-09-14T01:48:06;100301.99;;;14.63;73.47
55755;BME280;41674;52.290;-1.474;2022-09-14T01:50:37;100298.85;;;14.90;72.51
55755;BME280;41674;52.290;-1.474;2022-09-14T01:53:07;100306.14;;;14.49;73.52
55755;BME280;41674;52.290;-1.474;2022-09-14T01:55:34;100306.84;;;14.69;72.82
55755;BME280;41674;52.290;-1.474;2022-09-14T01:58:07;100302.00;;;15.03;71.90
55755;BME280;41674;52.290;-1.474;2022-09-14T02:00:32;100304.82;;;14.81;71.71
55755;BME280;41674;52.290;-1.474;2022-09-14T02:03:05;100301.98;;;14.50;72.06
55755;BME280;41674;52.290;-1.474;2022-09-14T02:05:35;100299.56;;;14.76;70.47
55755;BME280;41674;52.290;-1.474;2022-09-14T02:08:00;100300.31;;;14.39;71.15
55755;BME280;41674;52.290;-1.474;2022-09-14T02:10:29;100299.30;;;14.37;72.03
55755;BME280;41674;52.290;-1.474;2022-09-14T02:12:59;100301.20;;;14.71;70.78
55755;BME280;41674;52.290;-1.474;2022-09-14T02:15:28;100303.29;;;14.34;73.63
55755;BME280;41674;52.290;-1.474;2022-09-14T02:17:58;100298.57;;;13.76;77.03
55755;BME280;41674;52.290;-1.474;2022-09-14T02:20:31;100297.73;;;14.30;75.55
55755;BME280;41674;52.290;-1.474;2022-09-14T02:22:57;100296.84;;;14.59;73.90
55755;BME280;41674;52.290;-1.474;2022-09-14T02:25:27;100292.52;;;14.10;74.89
55755;BME280;41674;52.290;-1.474;2022-09-14T02:27:57;100290.14;;;14.17;75.13
55755;BME280;41674;52.290;-1.474;2022-09-14T02:33:13;100284.14;;;14.25;73.52
55755;BME280;41674;52.290;-1.474;2022-09-14T02:35:29;100278.92;;;14.20;73.84
55755;BME280;41674;52.290;-1.474;2022-09-14T02:38:02;100278.45;;;13.69;76.09
55755;BME280;41674;52.290;-1.474;2022-09-14T02:40:32;100279.79;;;13.99;74.69
55755;BME280;41674;52.290;-1.474;2022-09-14T02:42:59;100277.36;;;13.92;76.01
55755;BME280;41674;52.290;-1.474;2022-09-14T02:45:29;100274.65;;;13.68;75.20
55755;BME280;41674;52.290;-1.474;2022-09-14T02:47:59;100273.83;;;13.90;73.75
55755;BME280;41674;52.290;-1.474;2022-09-14T02:50:28;100277.28;;;13.98;73.27
55755;BME280;41674;52.290;-1.474;2022-09-14T02:52:58;100276.12;;;14.05;73.39
55755;BME280;41674;52.290;-1.474;2022-09-14T02:55:24;100273.33;;;13.64;73.54
55755;BME280;41674;52.290;-1.474;2022-09-14T02:58:01;100271.38;;;14.32;71.61
55755;BME280;41674;52.290;-1.474;2022-09-14T03:00:20;100271.91;;;14.14;72.44
55755;BME280;41674;52.290;-1.474;2022-09-14T03:02:50;100266.56;;;14.37;71.23
55755;BME280;41674;52.290;-1.474;2022-09-14T03:05:19;100263.75;;;14.33;70.22
55755;BME280;41674;52.290;-1.474;2022-09-14T03:07:49;100264.21;;;13.98;71.01
55755;BME280;41674;52.290;-1.474;2022-09-14T03:10:24;100257.23;;;14.18;70.14
55755;BME280;41674;52.290;-1.474;2022-09-14T03:12:48;100260.02;;;14.00;70.42
55755;BME280;41674;52.290;-1.474;2022-09-14T03:15:18;100260.99;;;14.07;70.76
55755;BME280;41674;52.290;-1.474;2022-09-14T03:17:48;100259.04;;;13.75;72.99
55755;BME280;41674;52.290;-1.474;2022-09-14T03:20:23;100256.85;;;13.79;71.78
55755;BME280;41674;52.290;-1.474;2022-09-14T03:22:46;100253.23;;;13.90;71.39
55755;BME280;41674;52.290;-1.474;2022-09-14T03:25:16;100250.97;;;13.70;70.02
55755;BME280;41674;52.290;-1.474;2022-09-14T03:27:48;100253.61;;;13.08;73.56
55755;BME280;41674;52.290;-1.474;2022-09-14T03:30:16;100253.54;;;13.76;70.63
55755;BME280;41674;52.290;-1.474;2022-09-14T03:32:45;100253.12;;;13.38;70.99
55755;BME280;41674;52.290;-1.474;2022-09-14T03:35:15;100253.71;;;13.73;71.78
55755;BME280;41674;52.290;-1.474;2022-09-14T03:37:45;100253.76;;;13.25;71.34
55755;BME280;41674;52.290;-1.474;2022-09-14T03:40:15;100248.79;;;12.88;73.18
55755;BME280;41674;52.290;-1.474;2022-09-14T03:42:45;100248.06;;;13.63;70.95
55755;BME280;41674;52.290;-1.474;2022-09-14T03:45:13;100247.24;;;13.55;71.13
55755;BME280;41674;52.290;-1.474;2022-09-14T03:47:42;100251.38;;;13.26;72.92
55755;BME280;41674;52.290;-1.474;2022-09-14T03:50:12;100252.32;;;13.47;71.61
55755;BME280;41674;52.290;-1.474;2022-09-14T03:52:41;100253.87;;;13.39;72.62
55755;BME280;41674;52.290;-1.474;2022-09-14T03:55:10;100258.17;;;12.97;74.73
55755;BME280;41674;52.290;-1.474;2022-09-14T03:57:39;100258.44;;;13.20;72.69
55755;BME280;41674;52.290;-1.474;2022-09-14T04:00:10;100257.18;;;13.32;72.57
55755;BME280;41674;52.290;-1.474;2022-09-14T04:02:39;100259.49;;;13.55;71.43
55755;BME280;41674;52.290;-1.474;2022-09-14T04:05:08;100260.35;;;13.21;73.07
55755;BME280;41674;52.290;-1.474;2022-09-14T04:07:37;100256.61;;;13.32;72.22
55755;BME280;41674;52.290;-1.474;2022-09-14T04:10:08;100256.98;;;13.36;71.77
55755;BME280;41674;52.290;-1.474;2022-09-14T04:12:37;100257.83;;;13.92;71.27
55755;BME280;41674;52.290;-1.474;2022-09-14T04:15:07;100256.41;;;13.49;72.87
55755;BME280;41674;52.290;-1.474;2022-09-14T04:17:35;100258.81;;;13.11;74.31
55755;BME280;41674;52.290;-1.474;2022-09-14T04:20:06;100259.65;;;13.01;75.81
55755;BME280;41674;52.290;-1.474;2022-09-14T04:22:35;100258.15;;;13.17;75.18
55755;BME280;41674;52.290;-1.474;2022-09-14T04:25:05;100256.76;;;13.06;75.82
55755;BME280;41674;52.290;-1.474;2022-09-14T04:27:33;100253.88;;;13.00;75.20
55755;BME280;41674;52.290;-1.474;2022-09-14T04:30:04;100252.78;;;12.67;78.22
55755;BME280;41674;52.290;-1.474;2022-09-14T04:32:33;100251.38;;;13.02;76.71
55755;BME280;41674;52.290;-1.474;2022-09-14T04:35:02;100251.44;;;12.81;78.30
55755;BME280;41674;52.290;-1.474;2022-09-14T04:37:32;100256.20;;;12.30;78.60
55755;BME280;41674;52.290;-1.474;2022-09-14T04:40:01;100255.11;;;12.90;77.22
55755;BME280;41674;52.290;-1.474;2022-09-14T04:42:30;100260.23;;;12.44;77.78
55755;BME280;41674;52.290;-1.474;2022-09-14T04:45:00;100256.34;;;13.07;75.69
55755;BME280;41674;52.290;-1.474;2022-09-14T04:47:29;100251.34;;;12.92;74.40
55755;BME280;41674;52.290;-1.474;2022-09-14T04:49:59;100250.38;;;12.58;75.10
55755;BME280;41674;52.290;-1.474;2022-09-14T04:52:28;100252.75;;;12.65;74.43
55755;BME280;41674;52.290;-1.474;2022-09-14T04:54:57;100254.59;;;12.51;74.04
55755;BME280;41674;52.290;-1.474;2022-09-14T04:57:27;100255.44;;;12.68;72.62
55755;BME280;41674;52.290;-1.474;2022-09-14T04:59:56;100249.87;;;13.09;71.22
55755;BME280;41674;52.290;-1.474;2022-09-14T05:02:26;100250.98;;;13.15;70.18
55755;BME280;41674;52.290;-1.474;2022-09-14T05:04:56;100250.41;;;12.58;71.48
55755;BME280;41674;52.290;-1.474;2022-09-14T05:07:26;100256.56;;;12.69;70.65
55755;BME280;41674;52.290;-1.474;2022-09-14T05:09:55;100256.10;;;12.53;70.52
55755;BME280;41674;52.290;-1.474;2022-09-14T05:12:24;100251.22;;;12.41;69.75
55755;BME280;41674;52.290;-1.474;2022-09-14T05:14:54;100253.49;;;12.62;69.96
55755;BME280;41674;52.290;-1.474;2022-09-14T05:17:23;100257.77;;;12.30;72.23
55755;BME280;41674;52.290;-1.474;2022-09-14T05:19:53;100263.23;;;11.54;75.68
55755;BME280;41674;52.290;-1.474;2022-09-14T05:22:22;100261.59;;;12.07;74.26
55755;BME280;41674;52.290;-1.474;2022-09-14T05:24:52;100261.68;;;11.73;74.37
55755;BME280;41674;52.290;-1.474;2022-09-14T05:27:22;100261.01;;;11.68;75.68
55755;BME280;41674;52.290;-1.474;2022-09-14T05:29:51;100259.65;;;11.54;76.01
55755;BME280;41674;52.290;-1.474;2022-09-14T05:32:20;100256.25;;;11.76;76.35
55755;BME280;41674;52.290;-1.474;2022-09-14T05:34:50;100249.45;;;11.93;75.98
55755;BME280;41674;52.290;-1.474;2022-09-14T05:37:25;100247.29;;;11.42;75.95
55755;BME280;41674;52.290;-1.474;2022-09-14T05:39:49;100247.13;;;11.62;76.05
55755;BME280;41674;52.290;-1.474;2022-09-14T05:42:18;100247.68;;;12.08;74.26
55755;BME280;41674;52.290;-1.474;2022-09-14T05:44:48;100246.91;;;12.17;72.50
55755;BME280;41674;52.290;-1.474;2022-09-14T05:47:17;100244.40;;;12.54;71.67
55755;BME280;41674;52.290;-1.474;2022-09-14T05:49:47;100242.45;;;11.98;70.97
55755;BME280;41674;52.290;-1.474;2022-09-14T05:52:16;100246.07;;;12.15;71.28
55755;BME280;41674;52.290;-1.474;2022-09-14T05:54:46;100252.36;;;11.07;72.74
55755;BME280;41674;52.290;-1.474;2022-09-14T05:57:15;100253.67;;;11.73;72.00
55755;BME280;41674;52.290;-1.474;2022-09-14T05:59:45;100254.57;;;11.50;73.94
55755;BME280;41674;52.290;-1.474;2022-09-14T06:02:14;100253.24;;;10.75;76.89
55755;BME280;41674;52.290;-1.474;2022-09-14T06:04:43;100255.84;;;11.08;76.82
55755;BME280;41674;52.290;-1.474;2022-09-14T06:07:13;100259.45;;;11.01;76.66
55755;BME280;41674;52.290;-1.474;2022-09-14T06:09:42;100255.88;;;12.06;74.11
55755;BME280;41674;52.290;-1.474;2022-09-14T06:12:12;100258.84;;;11.22;78.44
55755;BME280;41674;52.290;-1.474;2022-09-14T06:14:41;100261.28;;;10.28;81.40
55755;BME280;41674;52.290;-1.474;2022-09-14T06:17:11;100265.21;;;11.20;80.99
55755;BME280;41674;52.290;-1.474;2022-09-14T06:19:40;100259.68;;;12.00;78.91
55755;BME280;41674;52.290;-1.474;2022-09-14T06:22:09;100257.13;;;11.57;80.36
55755;BME280;41674;52.290;-1.474;2022-09-14T06:24:38;100259.40;;;11.28;83.06
55755;BME280;41674;52.290;-1.474;2022-09-14T06:27:07;100258.13;;;11.93;81.68
55755;BME280;41674;52.290;-1.474;2022-09-14T06:29:36;100259.80;;;12.00;80.12
55755;BME280;41674;52.290;-1.474;2022-09-14T06:32:06;100264.90;;;12.29;79.92
55755;BME280;41674;52.290;-1.474;2022-09-14T06:34:35;100259.72;;;13.17;77.59
55755;BME280;41674;52.290;-1.474;2022-09-14T06:37:04;100261.17;;;12.21;79.30
55755;BME280;41674;52.290;-1.474;2022-09-14T06:39:34;100260.33;;;12.51;78.68
55755;BME280;41674;52.290;-1.474;2022-09-14T06:42:04;100266.70;;;11.75;81.35
55755;BME280;41674;52.290;-1.474;2022-09-14T06:44:33;100266.19;;;13.15;76.90
55755;BME280;41674;52.290;-1.474;2022-09-14T06:47:03;100270.86;;;12.64;77.33
55755;BME280;41674;52.290;-1.474;2022-09-14T06:49:32;100274.21;;;12.12;80.30
55755;BME280;41674;52.290;-1.474;2022-09-14T06:52:02;100272.32;;;13.27;77.84
55755;BME280;41674;52.290;-1.474;2022-09-14T06:54:31;100266.92;;;13.25;76.93
55755;BME280;41674;52.290;-1.474;2022-09-14T06:57:01;100270.81;;;12.01;81.11
55755;BME280;41674;52.290;-1.474;2022-09-14T06:59:30;100271.57;;;12.21;82.91
55755;BME280;41674;52.290;-1.474;2022-09-14T07:02:00;100265.39;;;12.41;80.57
55755;BME280;41674;52.290;-1.474;2022-09-14T07:04:29;100265.35;;;12.95;78.35
55755;BME280;41674;52.290;-1.474;2022-09-14T07:06:59;100270.40;;;11.79;81.66
55755;BME280;41674;52.290;-1.474;2022-09-14T07:09:28;100272.45;;;11.22;83.57
55755;BME280;41674;52.290;-1.474;2022-09-14T07:11:57;100264.33;;;12.34;82.20
55755;BME280;41674;52.290;-1.474;2022-09-14T07:14:26;100264.76;;;12.51;82.71
55755;BME280;41674;52.290;-1.474;2022-09-14T07:16:56;100263.47;;;12.63;81.27
55755;BME280;41674;52.290;-1.474;2022-09-14T07:19:25;100267.78;;;9.95;95.41
55755;BME280;41674;52.290;-1.474;2022-09-14T07:21:54;100265.07;;;12.30;86.29
55755;BME280;41674;52.290;-1.474;2022-09-14T07:24:24;100270.34;;;11.90;86.31
55755;BME280;41674;52.290;-1.474;2022-09-14T07:26:54;100264.66;;;12.67;83.26
55755;BME280;41674;52.290;-1.474;2022-09-14T07:29:23;100265.58;;;12.72;83.84
55755;BME280;41674;52.290;-1.474;2022-09-14T07:31:53;100270.31;;;12.69;84.64
55755;BME280;41674;52.290;-1.474;2022-09-14T07:34:23;100266.50;;;12.07;84.12
55755;BME280;41674;52.290;-1.474;2022-09-14T07:36:52;100269.15;;;13.40;80.47
55755;BME280;41674;52.290;-1.474;2022-09-14T07:39:21;100265.91;;;13.56;81.75
55755;BME280;41674;52.290;-1.474;2022-09-14T07:41:51;100269.43;;;13.66;78.43
55755;BME280;41674;52.290;-1.474;2022-09-14T07:44:25;100265.69;;;14.81;74.90
55755;BME280;41674;52.290;-1.474;2022-09-14T07:46:50;100267.09;;;15.11;75.16
55755;BME280;41674;52.290;-1.474;2022-09-14T07:49:20;100264.86;;;15.22;75.30
55755;BME280;41674;52.290;-1.474;2022-09-14T07:51:49;100264.40;;;16.39;72.39
55755;BME280;41674;52.290;-1.474;2022-09-14T07:54:19;100263.37;;;16.13;71.45
55755;BME280;41674;52.290;-1.474;2022-09-14T07:56:48;100256.95;;;14.86;76.60
55755;BME280;41674;52.290;-1.474;2022-09-14T07:59:17;100257.86;;;13.19;80.98
55755;BME280;41674;52.290;-1.474;2022-09-14T08:04:16;100254.15;;;15.03;76.07
55755;BME280;41674;52.290;-1.474;2022-09-14T08:06:45;100251.04;;;16.42;72.05
55755;BME280;41674;52.290;-1.474;2022-09-14T08:09:15;100250.14;;;15.25;74.23
55755;BME280;41674;52.290;-1.474;2022-09-14T08:11:45;100245.76;;;15.92;72.43
55755;BME280;41674;52.290;-1.474;2022-09-14T08:14:14;100246.86;;;16.45;71.66
55755;BME280;41674;52.290;-1.474;2022-09-14T08:16:43;100245.51;;;16.56;70.84
55755;BME280;41674;52.290;-1.474;2022-09-14T08:19:14;100249.71;;;13.82;80.70
55755;BME280;41674;52.290;-1.474;2022-09-14T08:21:42;100247.94;;;15.76;75.55
55755;BME280;41674;52.290;-1.474;2022-09-14T08:24:13;100250.28;;;16.23;73.86
55755;BME280;41674;52.290;-1.474;2022-09-14T08:26:41;100247.08;;;16.93;72.38
55755;BME280;41674;52.290;-1.474;2022-09-14T08:29:11;100252.01;;;16.08;73.55
55755;BME280;41674;52.290;-1.474;2022-09-14T08:31:40;100245.90;;;16.95;71.81
55755;BME280;41674;52.290;-1.474;2022-09-14T08:34:10;100242.15;;;17.38;71.60
55755;BME280;41674;52.290;-1.474;2022-09-14T08:36:40;100248.83;;;15.70;75.75
55755;BME280;41674;52.290;-1.474;2022-09-14T08:39:10;100248.40;;;15.54;75.81
55755;BME280;41674;52.290;-1.474;2022-09-14T08:41:46;100246.11;;;14.33;80.23
55755;BME280;41674;52.290;-1.474;2022-09-14T08:44:14;100252.47;;;14.00;84.81
55755;BME280;41674;52.290;-1.474;2022-09-14T08:46:39;100247.48;;;15.02;81.30
55755;BME280;41674;52.290;-1.474;2022-09-14T08:49:12;100250.90;;;14.27;86.32
55755;BME280;41674;52.290;-1.474;2022-09-14T08:51:35;100251.74;;;14.71;84.04
55755;BME280;41674;52.290;-1.474;2022-09-14T08:54:07;100250.54;;;14.87;82.49
55755;BME280;41674;52.290;-1.474;2022-09-14T08:56:40;100253.38;;;14.92;83.81
55755;BME280;41674;52.290;-1.474;2022-09-14T08:59:20;100258.62;;;15.55;81.80
55755;BME280;41674;52.290;-1.474;2022-09-14T09:01:41;100263.00;;;14.21;85.25
55755;BME280;41674;52.290;-1.474;2022-09-14T09:04:18;100268.80;;;13.00;89.08
55755;BME280;41674;52.290;-1.474;2022-09-14T09:06:38;100271.81;;;12.61;91.06
55755;BME280;41674;52.290;-1.474;2022-09-14T09:09:06;100271.07;;;12.49;91.42
55755;BME280;41674;52.290;-1.474;2022-09-14T09:11:36;100268.30;;;12.12;93.52
55755;BME280;41674;52.290;-1.474;2022-09-14T09:14:07;100258.39;;;12.63;93.71
55755;BME280;41674;52.290;-1.474;2022-09-14T09:16:30;100251.18;;;13.34;88.87
55755;BME280;41674;52.290;-1.474;2022-09-14T09:19:04;100249.86;;;12.79;92.21
55755;BME280;41674;52.290;-1.474;2022-09-14T09:21:32;100245.63;;;13.19;88.23
55755;BME280;41674;52.290;-1.474;2022-09-14T09:24:03;100245.70;;;12.61;91.48
55755;BME280;41674;52.290;-1.474;2022-09-14T09:26:30;100246.95;;;12.35;94.10
55755;BME280;41674;52.290;-1.474;2022-09-14T09:28:59;100243.23;;;13.06;90.49
55755;BME280;41674;52.290;-1.474;2022-09-14T09:31:31;100244.33;;;12.06;95.03
55755;BME280;41674;52.290;-1.474;2022-09-14T09:33:57;100240.78;;;12.62;91.25
55755;BME280;41674;52.290;-1.474;2022-09-14T09:36:32;100244.57;;;14.01;86.65
55755;BME280;41674;52.290;-1.474;2022-09-14T09:38:57;100245.66;;;13.90;84.70
55755;BME280;41674;52.290;-1.474;2022-09-14T09:41:28;100247.63;;;13.25;86.43
55755;BME280;41674;52.290;-1.474;2022-09-14T09:43:58;100253.32;;;13.13;86.96
55755;BME280;41674;52.290;-1.474;2022-09-14T09:46:26;100254.38;;;13.82;85.38
55755;BME280;41674;52.290;-1.474;2022-09-14T09:48:54;100249.72;;;15.10;79.43
55755;BME280;41674;52.290;-1.474;2022-09-14T09:51:27;100252.60;;;13.25;86.04
55755;BME280;41674;52.290;-1.474;2022-09-14T09:53:55;100252.96;;;13.71;86.33
55755;BME280;41674;52.290;-1.474;2022-09-14T09:56:25;100247.91;;;15.13;78.54
55755;BME280;41674;52.290;-1.474;2022-09-14T09:58:52;100248.32;;;14.19;80.13
55755;BME280;41674;52.290;-1.474;2022-09-14T10:01:29;100248.34;;;14.86;81.10
55755;BME280;41674;52.290;-1.474;2022-09-14T10:04:00;100249.24;;;14.50;82.49
55755;BME280;41674;52.290;-1.474;2022-09-14T10:06:26;100243.39;;;14.72;79.06
55755;BME280;41674;52.290;-1.474;2022-09-14T10:08:56;100239.25;;;14.61;78.62
55755;BME280;41674;52.290;-1.474;2022-09-14T10:11:31;100243.15;;;14.21;81.16
55755;BME280;41674;52.290;-1.474;2022-09-14T10:13:49;100243.08;;;15.37;76.72
55755;BME280;41674;52.290;-1.474;2022-09-14T10:16:19;100243.36;;;14.57;81.57
55755;BME280;41674;52.290;-1.474;2022-09-14T10:18:49;100240.94;;;15.18;78.99
55755;BME280;41674;52.290;-1.474;2022-09-14T10:21:18;100240.07;;;15.76;78.92
55755;BME280;41674;52.290;-1.474;2022-09-14T10:26:22;100237.09;;;15.61;78.96
55755;BME280;41674;52.290;-1.474;2022-09-14T10:28:48;100230.09;;;16.72;74.73
55755;BME280;41674;52.290;-1.474;2022-09-14T10:31:23;100235.25;;;15.50;78.09
55755;BME280;41674;52.290;-1.474;2022-09-14T10:33:46;100225.10;;;15.37;77.71
55755;BME280;41674;52.290;-1.474;2022-09-14T10:36:20;100221.60;;;15.00;80.36
55755;BME280;41674;52.290;-1.474;2022-09-14T10:38:48;100224.61;;;15.09;79.93
55755;BME280;41674;52.290;-1.474;2022-09-14T10:41:22;100219.00;;;15.26;77.52
55755;BME280;41674;52.290;-1.474;2022-09-14T10:44:03;100222.81;;;14.58;76.43
55755;BME280;41674;52.290;-1.474;2022-09-14T10:46:19;100232.19;;;15.20;77.96
55755;BME280;41674;52.290;-1.474;2022-09-14T10:48:52;100228.69;;;15.28;76.16
55755;BME280;41674;52.290;-1.474;2022-09-14T10:53:47;100228.69;;;15.16;79.44
55755;BME280;41674;52.290;-1.474;2022-09-14T10:56:14;100232.97;;;15.19;80.81
55755;BME280;41674;52.290;-1.474;2022-09-14T10:58:53;100224.66;;;17.00;70.04
55755;BME280;41674;52.290;-1.474;2022-09-14T11:01:21;100227.67;;;16.94;73.43
55755;BME280;41674;52.290;-1.474;2022-09-14T11:03:50;100229.21;;;16.15;75.70
55755;BME280;41674;52.290;-1.474;2022-09-14T11:06:17;100234.40;;;16.10;77.29
55755;BME280;41674;52.290;-1.474;2022-09-14T11:08:42;100233.25;;;16.26;76.88
55755;BME280;41674;52.290;-1.474;2022-09-14T11:11:21;100228.27;;;16.12;76.20
55755;BME280;41674;52.290;-1.474;2022-09-14T11:13:51;100229.76;;;16.22;76.01
55755;BME280;41674;52.290;-1.474;2022-09-14T11:16:16;100218.73;;;17.13;72.64
55755;BME280;41674;52.290;-1.474;2022-09-14T11:18:42;100214.00;;;18.80;67.99
55755;BME280;41674;52.290;-1.474;2022-09-14T11:21:09;100221.23;;;16.82;70.57
55755;BME280;41674;52.290;-1.474;2022-09-14T11:23:44;100228.39;;;15.31;76.87
55755;BME280;41674;52.290;-1.474;2022-09-14T11:26:11;100227.28;;;16.01;71.90
55755;BME280;41674;52.290;-1.474;2022-09-14T11:28:37;100222.51;;;15.87;74.11
55755;BME280;41674;52.290;-1.474;2022-09-14T11:31:08;100215.12;;;16.99;69.29
55755;BME280;41674;52.290;-1.474;2022-09-14T11:33:36;100214.16;;;17.03;67.73
55755;BME280;41674;52.290;-1.474;2022-09-14T11:36:08;100211.42;;;17.63;69.17
55755;BME280;41674;52.290;-1.474;2022-09-14T11:38:35;100215.08;;;18.16;68.30
55755;BME280;41674;52.290;-1.474;2022-09-14T11:41:08;100218.88;;;17.45;71.09
55755;BME280;41674;52.290;-1.474;2022-09-14T11:43:36;100223.16;;;17.01;72.00
55755;BME280;41674;52.290;-1.474;2022-09-14T11:46:05;100215.50;;;17.30;69.19
55755;BME280;41674;52.290;-1.474;2022-09-14T11:48:33;100219.35;;;16.58;71.38
55755;BME280;41674;52.290;-1.474;2022-09-14T11:51:05;100218.29;;;17.76;67.99
55755;BME280;41674;52.290;-1.474;2022-09-14T11:53:30;100218.03;;;17.32;69.66
55755;BME280;41674;52.290;-1.474;2022-09-14T11:55:58;100217.90;;;19.11;62.38
55755;BME280;41674;52.290;-1.474;2022-09-14T11:58:28;100218.55;;;20.47;59.30
55755;BME280;41674;52.290;-1.474;2022-09-14T12:01:01;100224.90;;;19.55;59.25
55755;BME280;41674;52.290;-1.474;2022-09-14T12:06:06;100220.14;;;23.02;52.04
55755;BME280;41674;52.290;-1.474;2022-09-14T12:08:37;100228.50;;;20.04;56.58
55755;BME280;41674;52.290;-1.474;2022-09-14T12:11:04;100226.32;;;19.50;60.01
55755;BME280;41674;52.290;-1.474;2022-09-14T12:13:25;100229.93;;;20.15;59.40
55755;BME280;41674;52.290;-1.474;2022-09-14T12:16:00;100233.18;;;18.35;65.36
55755;BME280;41674;52.290;-1.474;2022-09-14T12:18:26;100228.37;;;18.57;63.54
55755;BME280;41674;52.290;-1.474;2022-09-14T12:21:01;100229.40;;;17.77;65.33
55755;BME280;41674;52.290;-1.474;2022-09-14T12:23:25;100228.58;;;17.45;65.30
55755;BME280;41674;52.290;-1.474;2022-09-14T12:25:57;100218.93;;;19.03;60.56
55755;BME280;41674;52.290;-1.474;2022-09-14T12:28:28;100220.06;;;19.02;58.78
55755;BME280;41674;52.290;-1.474;2022-09-14T12:31:05;100214.94;;;21.40;52.06
55755;BME280;41674;52.290;-1.474;2022-09-14T12:35:50;100210.49;;;21.16;55.58
55755;BME280;41674;52.290;-1.474;2022-09-14T12:40:49;100212.91;;;20.60;56.06
55755;BME280;41674;52.290;-1.474;2022-09-14T12:45:50;100207.79;;;19.25;61.27
55755;BME280;41674;52.290;-1.474;2022-09-14T12:50:49;100203.72;;;21.43;52.43
55755;BME280;41674;52.290;-1.474;2022-09-14T12:53:26;100218.28;;;19.56;55.55
55755;BME280;41674;52.290;-1.474;2022-09-14T12:55:54;100210.83;;;20.84;52.70
55755;BME280;41674;52.290;-1.474;2022-09-14T12:58:28;100213.55;;;22.19;49.48
55755;BME280;41674;52.290;-1.474;2022-09-14T13:00:51;100209.84;;;23.03;47.66
55755;BME280;41674;52.290;-1.474;2022-09-14T13:03:24;100208.81;;;21.20;51.81
55755;BME280;41674;52.290;-1.474;2022-09-14T13:05:44;100213.57;;;20.17;54.49
55755;BME280;41674;52.290;-1.474;2022-09-14T13:08:18;100206.33;;;19.24;58.68
55755;BME280;41674;52.290;-1.474;2022-09-14T13:10:45;100212.11;;;20.07;56.64
55755;BME280;41674;52.290;-1.474;2022-09-14T13:13:15;100207.15;;;20.35;55.65
55755;BME280;41674;52.290;-1.474;2022-09-14T13:15:49;100209.05;;;20.04;56.59